Greenwood, Louisiana
Current Conditions -  °F | °C
As of 8:56 AM on Thursday 30 Oct 2014 (Local Time) from KSHV Reporting Station
Light Fog Light Fog  
Wind Chill: 54°   Ceiling: Unl
Heat Index: 54°   Visibility: 7mi
Dew Point: 51°   Wind: 0mph
Humidity: 90%   Direction: NA
Pressure: 30.17"   Gusts: NA
Location:  32.44°N, 93.97°W
Report Text: KSHV 301356Z 00000KT 7SM MIFG CLR 12/11 A3017 RMK AO2 SLP215 T01220106
Loading
Personal Weather Stations






























Interactive Weather Map
Tropical Storm Tracking
New forecast layout! Learn more

10-Day Weather Forecast

Advertisements
Track Severe Weather on mobile